createdAt,value
2019-05-19T00:01:02.617Z,63.68
2019-05-19T00:03:32.077Z,63.74
2019-05-19T00:06:01.829Z,63.80
2019-05-19T00:08:33.618Z,63.88
2019-05-19T00:11:03.250Z,63.97
2019-05-19T00:13:32.807Z,64.03
2019-05-19T00:16:02.437Z,64.11
2019-05-19T00:18:31.955Z,64.19
2019-05-19T00:21:01.589Z,64.29
2019-05-19T00:23:31.163Z,64.38
2019-05-19T00:26:00.733Z,64.45
2019-05-19T00:28:30.524Z,64.56
2019-05-19T00:31:01.472Z,64.62
2019-05-19T00:33:30.973Z,64.71
2019-05-19T00:36:00.489Z,64.80
2019-05-19T00:38:29.994Z,64.87
2019-05-19T00:41:00.711Z,64.96
2019-05-19T00:43:30.284Z,65.02
2019-05-19T00:46:00.099Z,65.08
2019-05-19T00:48:29.654Z,65.18
2019-05-19T00:50:59.208Z,65.25
2019-05-19T00:53:28.778Z,65.30
2019-05-19T00:55:59.868Z,65.40
2019-05-19T00:58:31.379Z,65.46
2019-05-19T01:01:01.044Z,65.53
2019-05-19T01:03:30.603Z,65.61
2019-05-19T01:06:00.101Z,65.69
2019-05-19T01:08:29.821Z,65.79
2019-05-19T01:10:59.382Z,65.87
2019-05-19T01:13:29.017Z,65.97
2019-05-19T01:15:58.482Z,66.04
2019-05-19T01:18:27.994Z,66.14
2019-05-19T01:20:57.853Z,66.21
2019-05-19T01:23:28.619Z,66.28
2019-05-19T01:25:58.039Z,66.39
2019-05-19T01:28:27.527Z,66.47
2019-05-19T01:30:57.123Z,66.54
2019-05-19T01:33:26.568Z,66.61
2019-05-19T01:35:56.048Z,66.69
2019-05-19T01:38:25.822Z,66.77
2019-05-19T01:40:55.305Z,66.82
2019-05-19T01:43:24.792Z,66.91
2019-05-19T01:45:54.381Z,66.96
2019-05-19T01:48:23.935Z,67.02
2019-05-19T01:50:53.427Z,67.09
2019-05-19T01:53:22.916Z,67.14
2019-05-19T01:55:52.471Z,67.20
2019-05-19T01:58:22.045Z,67.27
2019-05-19T02:00:51.586Z,67.32
2019-05-19T02:03:21.149Z,67.36
2019-05-19T02:05:50.563Z,67.41
2019-05-19T02:08:20.058Z,67.46
2019-05-19T02:10:49.548Z,67.51
2019-05-19T02:13:19.103Z,67.55
2019-05-19T02:15:48.739Z,67.59
2019-05-19T02:18:18.160Z,67.66
2019-05-19T02:20:47.795Z,67.72
2019-05-19T02:23:17.272Z,67.76
2019-05-19T02:25:46.771Z,67.82
2019-05-19T02:28:16.318Z,67.86
2019-05-19T02:30:46.083Z,67.90
2019-05-19T02:33:15.638Z,67.90
2019-05-19T02:35:45.205Z,67.95
2019-05-19T02:38:14.750Z,67.97
2019-05-19T02:40:47.219Z,68.00
2019-05-19T02:43:18.568Z,68.03
2019-05-19T02:45:50.035Z,68.10
2019-05-19T02:48:20.447Z,68.12
2019-05-19T02:50:52.903Z,68.18
2019-05-19T02:53:23.896Z,68.22
2019-05-19T02:55:54.253Z,68.25
2019-05-19T02:58:24.759Z,68.26
2019-05-19T03:00:54.235Z,68.29
2019-05-19T03:03:23.717Z,68.31
2019-05-19T03:05:53.240Z,68.33
2019-05-19T03:08:22.665Z,68.37
2019-05-19T03:10:52.083Z,68.44
2019-05-19T03:13:21.646Z,68.49
2019-05-19T03:15:51.122Z,68.53
2019-05-19T03:18:20.831Z,68.57
2019-05-19T03:20:50.314Z,68.67
2019-05-19T03:23:19.816Z,68.71
2019-05-19T03:25:49.333Z,68.75
2019-05-19T03:28:18.950Z,68.81
2019-05-19T03:30:53.141Z,68.88
2019-05-19T03:33:30.364Z,68.94
2019-05-19T03:36:00.067Z,68.98
2019-05-19T03:38:29.566Z,69.03
2019-05-19T03:40:59.045Z,69.09
2019-05-19T03:43:28.608Z,69.18
2019-05-19T03:45:58.024Z,69.25
2019-05-19T03:48:27.467Z,69.31
2019-05-19T03:50:56.973Z,69.39
2019-05-19T03:53:26.534Z,69.49
2019-05-19T03:55:59.331Z,69.56
2019-05-19T03:58:30.579Z,69.64
2019-05-19T04:01:06.162Z,69.71
2019-05-19T04:03:50.332Z,69.80
2019-05-19T04:06:22.552Z,69.86
2019-05-19T04:08:52.351Z,69.94
2019-05-19T04:11:23.612Z,69.97
2019-05-19T04:13:56.964Z,70.00
2019-05-19T04:16:26.565Z,70.03
2019-05-19T04:18:56.177Z,70.03
2019-05-19T04:21:25.769Z,70.03
2019-05-19T04:23:55.270Z,70.00
2019-05-19T04:26:24.788Z,70.00
2019-05-19T04:28:54.339Z,69.96
2019-05-19T04:31:23.821Z,69.96
2019-05-19T04:33:53.276Z,69.92
2019-05-19T04:36:22.756Z,69.88
2019-05-19T04:38:52.384Z,69.91
2019-05-19T04:41:22.039Z,69.90
2019-05-19T04:43:51.498Z,69.92
2019-05-19T04:46:20.924Z,69.95
2019-05-19T04:48:50.592Z,69.95
2019-05-19T04:51:20.015Z,69.96
2019-05-19T04:53:49.449Z,69.96
2019-05-19T04:56:19.874Z,69.94
2019-05-19T04:58:50.060Z,69.95
2019-05-19T05:01:19.642Z,69.93
2019-05-19T05:03:49.279Z,69.92
2019-05-19T05:06:18.917Z,69.90
2019-05-19T05:08:48.446Z,69.89
2019-05-19T05:11:17.877Z,69.86
2019-05-19T05:13:47.303Z,69.84
2019-05-19T05:16:17.623Z,69.82
2019-05-19T05:18:47.983Z,69.79
2019-05-19T05:21:18.102Z,69.75
2019-05-19T05:23:47.593Z,69.72
2019-05-19T05:26:17.321Z,69.73
2019-05-19T05:28:47.126Z,69.69
2019-05-19T05:31:16.803Z,69.70
2019-05-19T05:33:46.697Z,69.70
2019-05-19T05:36:16.167Z,69.70
2019-05-19T05:38:46.994Z,69.71
2019-05-19T05:41:16.540Z,69.67
2019-05-19T05:43:46.035Z,69.61
2019-05-19T05:46:15.661Z,69.51
2019-05-19T05:48:45.089Z,69.39
2019-05-19T05:51:14.570Z,69.20
2019-05-19T05:53:44.262Z,69.04
2019-05-19T05:56:13.870Z,68.89
2019-05-19T05:58:43.757Z,68.76
2019-05-19T06:01:13.316Z,68.61
2019-05-19T06:03:44.338Z,68.42
2019-05-19T06:06:13.931Z,68.28
2019-05-19T06:08:43.704Z,68.15
2019-05-19T06:11:13.336Z,67.89
2019-05-19T06:13:43.393Z,67.67
2019-05-19T06:16:12.877Z,67.50
2019-05-19T06:18:42.877Z,67.26
2019-05-19T06:21:12.385Z,67.01
2019-05-19T06:23:41.969Z,66.74
2019-05-19T06:26:11.537Z,66.53
2019-05-19T06:28:41.218Z,66.22
2019-05-19T06:31:10.879Z,65.96
2019-05-19T06:33:40.380Z,65.69
2019-05-19T06:36:11.094Z,65.41
2019-05-19T06:38:40.469Z,65.14
2019-05-19T06:41:10.066Z,64.96
2019-05-19T06:43:39.521Z,64.72
2019-05-19T06:46:09.167Z,64.49
2019-05-19T06:48:39.125Z,64.25
2019-05-19T06:51:08.898Z,64.07
2019-05-19T06:53:38.384Z,63.87
2019-05-19T06:56:07.957Z,63.69
2019-05-19T06:58:37.723Z,63.55
2019-05-19T07:01:07.299Z,63.35
2019-05-19T07:03:36.905Z,63.16
2019-05-19T07:06:06.568Z,62.97
2019-05-19T07:08:36.269Z,62.79
2019-05-19T07:11:05.797Z,62.65
2019-05-19T07:13:35.354Z,62.50
2019-05-19T07:16:04.984Z,62.31
2019-05-19T07:18:34.738Z,62.17
2019-05-19T07:21:04.291Z,62.01
2019-05-19T07:23:35.083Z,61.85
2019-05-19T07:26:04.646Z,61.72
2019-05-19T07:28:35.450Z,61.67
2019-05-19T07:31:05.079Z,61.57
2019-05-19T07:33:34.510Z,61.40
2019-05-19T07:36:04.185Z,61.25
2019-05-19T07:38:33.749Z,61.10
2019-05-19T07:41:03.332Z,60.94
2019-05-19T07:43:32.959Z,60.84
2019-05-19T07:46:02.450Z,60.65
2019-05-19T07:48:32.034Z,60.52
2019-05-19T07:51:05.098Z,60.42
2019-05-19T07:53:42.539Z,60.38
2019-05-19T07:56:06.672Z,60.23
2019-05-19T07:58:36.275Z,60.08
2019-05-19T08:01:05.844Z,59.97
2019-05-19T08:03:35.279Z,59.91
2019-05-19T08:06:04.814Z,59.77
2019-05-19T08:08:34.654Z,59.67
2019-05-19T08:11:04.210Z,59.58
2019-05-19T08:13:33.845Z,59.53
2019-05-19T08:16:03.550Z,59.50
2019-05-19T08:18:33.447Z,59.41
2019-05-19T08:21:03.223Z,59.35
2019-05-19T08:23:32.780Z,59.33
2019-05-19T08:26:02.451Z,59.31
2019-05-19T08:28:32.008Z,59.32
2019-05-19T08:31:01.426Z,59.23
2019-05-19T08:33:30.927Z,59.10
2019-05-19T08:36:00.407Z,58.96
2019-05-19T08:38:30.105Z,58.94
2019-05-19T08:40:59.660Z,58.85
2019-05-19T08:43:29.169Z,58.75
2019-05-19T08:45:58.847Z,58.73
2019-05-19T08:48:29.685Z,58.64
2019-05-19T08:50:59.182Z,58.58
2019-05-19T08:53:28.771Z,58.47
2019-05-19T08:55:58.240Z,58.48
2019-05-19T08:58:27.775Z,58.44
2019-05-19T09:00:57.334Z,58.38
2019-05-19T09:03:26.880Z,58.31
2019-05-19T09:05:56.466Z,58.25
2019-05-19T09:08:26.092Z,58.18
2019-05-19T09:10:55.667Z,58.01
2019-05-19T09:13:28.625Z,57.92
2019-05-19T09:16:03.337Z,57.79
2019-05-19T09:18:33.077Z,57.70
2019-05-19T09:21:02.548Z,57.53
2019-05-19T09:23:32.102Z,57.44
2019-05-19T09:26:01.641Z,57.36
2019-05-19T09:28:31.304Z,57.22
2019-05-19T09:31:04.760Z,57.18
2019-05-19T09:33:34.641Z,57.14
2019-05-19T09:36:04.369Z,57.05
2019-05-19T09:38:33.951Z,57.00
2019-05-19T09:41:03.649Z,56.88
2019-05-19T09:43:33.311Z,56.76
2019-05-19T09:46:02.722Z,56.68
2019-05-19T09:48:32.540Z,56.64
2019-05-19T09:51:02.103Z,56.52
2019-05-19T09:53:31.607Z,56.42
2019-05-19T09:56:02.381Z,56.36
2019-05-19T09:58:32.092Z,56.34
2019-05-19T10:01:01.683Z,56.27
2019-05-19T10:03:31.154Z,56.25
2019-05-19T10:06:00.864Z,56.19
2019-05-19T10:08:34.499Z,56.12
2019-05-19T10:11:28.184Z,56.06
2019-05-19T10:13:57.724Z,55.98
2019-05-19T10:16:27.340Z,55.91
2019-05-19T10:18:56.841Z,55.84
2019-05-19T10:21:26.340Z,55.71
2019-05-19T10:23:55.951Z,55.65
2019-05-19T10:26:25.401Z,55.61
2019-05-19T10:28:55.135Z,55.55
2019-05-19T10:31:24.636Z,55.44
2019-05-19T10:33:54.122Z,55.35
2019-05-19T10:36:23.752Z,55.29
2019-05-19T10:38:56.445Z,55.23
2019-05-19T10:41:26.929Z,55.21
2019-05-19T10:44:02.489Z,55.08
2019-05-19T10:46:32.049Z,54.98
2019-05-19T10:49:02.838Z,54.83
2019-05-19T10:51:32.485Z,54.67
2019-05-19T10:54:02.313Z,54.57
2019-05-19T10:56:31.985Z,54.54
2019-05-19T10:59:01.486Z,54.40
2019-05-19T11:01:31.053Z,54.33
2019-05-19T11:04:03.901Z,54.22
2019-05-19T11:06:33.522Z,54.09
2019-05-19T11:09:04.581Z,54.02
2019-05-19T11:11:34.315Z,53.99
2019-05-19T11:14:04.279Z,53.84
2019-05-19T11:16:33.727Z,53.75
2019-05-19T11:19:03.778Z,53.64
2019-05-19T11:21:33.361Z,53.45
2019-05-19T11:24:02.928Z,53.29
2019-05-19T11:26:32.505Z,53.18
2019-05-19T11:29:02.037Z,53.09
2019-05-19T11:31:34.293Z,53.06
2019-05-19T11:34:03.991Z,52.93
2019-05-19T11:36:33.558Z,52.73
2019-05-19T11:39:04.720Z,52.59
2019-05-19T11:41:34.191Z,52.47
2019-05-19T11:44:03.852Z,52.31
2019-05-19T11:46:33.369Z,52.20
2019-05-19T11:49:03.051Z,52.16
2019-05-19T11:51:32.537Z,52.09
2019-05-19T11:54:02.139Z,51.99
2019-05-19T11:56:31.634Z,51.82
2019-05-19T11:59:01.243Z,51.66
2019-05-19T12:01:30.687Z,51.48
2019-05-19T12:04:00.172Z,51.30
2019-05-19T12:06:38.584Z,51.15
2019-05-19T12:09:01.204Z,51.04
2019-05-19T12:11:32.517Z,50.92
2019-05-19T12:14:02.208Z,50.85
2019-05-19T12:16:31.696Z,50.75
2019-05-19T12:19:01.567Z,50.71
2019-05-19T12:21:31.053Z,50.64
2019-05-19T12:24:00.534Z,50.62
2019-05-19T12:26:30.495Z,50.63
2019-05-19T12:29:00.469Z,50.59
2019-05-19T12:31:29.947Z,50.57
2019-05-19T12:33:59.520Z,50.55
2019-05-19T12:36:29.094Z,50.60
2019-05-19T12:38:58.523Z,50.58
2019-05-19T12:41:28.082Z,50.63
2019-05-19T12:43:58.860Z,50.66
2019-05-19T12:46:28.421Z,50.58
2019-05-19T12:48:57.980Z,50.66
2019-05-19T12:51:27.707Z,50.69
2019-05-19T12:53:57.185Z,50.68
2019-05-19T12:56:39.134Z,50.72
2019-05-19T12:58:57.906Z,50.68
2019-05-19T13:01:27.822Z,50.70
2019-05-19T13:03:57.378Z,50.65
2019-05-19T13:06:27.186Z,50.62
2019-05-19T13:08:56.668Z,50.60
2019-05-19T13:11:26.124Z,50.58
2019-05-19T13:13:55.682Z,50.54
2019-05-19T13:16:25.430Z,50.47
2019-05-19T13:18:54.918Z,50.46
2019-05-19T13:21:24.559Z,50.42
2019-05-19T13:23:55.909Z,50.39
2019-05-19T13:26:25.555Z,50.37
2019-05-19T13:28:55.152Z,50.33
2019-05-19T13:31:24.715Z,50.32
2019-05-19T13:33:54.416Z,50.28
2019-05-19T13:36:23.977Z,50.30
2019-05-19T13:38:53.563Z,50.26
2019-05-19T13:41:23.234Z,50.27
2019-05-19T13:43:52.728Z,50.28
2019-05-19T13:46:22.222Z,50.28
2019-05-19T13:48:51.904Z,50.27
2019-05-19T13:51:21.389Z,50.31
2019-05-19T13:53:50.967Z,50.29
2019-05-19T13:56:20.519Z,50.31
2019-05-19T13:58:50.190Z,50.29
2019-05-19T14:01:28.155Z,50.30
2019-05-19T14:03:52.257Z,50.32
2019-05-19T14:06:21.980Z,50.31
2019-05-19T14:08:51.554Z,50.31
2019-05-19T14:11:21.041Z,50.34
2019-05-19T14:13:50.564Z,50.38
2019-05-19T14:16:20.170Z,50.42
2019-05-19T14:18:49.734Z,50.42
2019-05-19T14:21:19.268Z,50.45
2019-05-19T14:23:48.686Z,50.47
2019-05-19T14:26:18.274Z,50.50
2019-05-19T14:28:47.718Z,50.52
2019-05-19T14:31:17.383Z,50.55
2019-05-19T14:33:47.015Z,50.61
2019-05-19T14:36:17.670Z,50.65
2019-05-19T14:39:05.053Z,50.70
2019-05-19T14:41:37.660Z,50.74
2019-05-19T14:44:07.249Z,50.80
2019-05-19T14:46:36.735Z,50.85
2019-05-19T14:49:06.304Z,50.91
2019-05-19T14:51:39.020Z,50.97
2019-05-19T14:54:08.633Z,51.03
2019-05-19T14:56:38.116Z,51.12
2019-05-19T14:59:07.798Z,51.16
2019-05-19T15:01:37.411Z,51.23
2019-05-19T15:04:06.988Z,51.31
2019-05-19T15:06:36.624Z,51.36
2019-05-19T15:09:07.118Z,51.42
2019-05-19T15:11:36.727Z,51.46
2019-05-19T15:14:06.311Z,51.55
2019-05-19T15:16:35.894Z,51.63
2019-05-19T15:19:05.469Z,51.68
2019-05-19T15:21:34.953Z,51.75
2019-05-19T15:24:04.520Z,51.84
2019-05-19T15:26:34.079Z,51.93
2019-05-19T15:29:03.653Z,51.98
2019-05-19T15:31:33.214Z,52.08
2019-05-19T15:34:02.818Z,52.15
2019-05-19T15:36:33.674Z,52.23
2019-05-19T15:39:04.607Z,52.34
2019-05-19T15:41:34.231Z,52.40
2019-05-19T15:44:03.796Z,52.48
2019-05-19T15:46:33.364Z,52.53
2019-05-19T15:49:02.870Z,52.53
2019-05-19T15:51:37.487Z,52.58
2019-05-19T15:54:04.053Z,52.62
2019-05-19T15:56:33.575Z,52.63
2019-05-19T15:59:03.329Z,52.65
2019-05-19T16:01:34.622Z,52.68
2019-05-19T16:04:04.241Z,52.69
2019-05-19T16:06:33.749Z,52.72
2019-05-19T16:09:07.444Z,52.75
2019-05-19T16:11:37.379Z,52.75
2019-05-19T16:14:07.119Z,52.79
2019-05-19T16:16:38.009Z,52.81
2019-05-19T16:19:07.731Z,52.85
2019-05-19T16:21:37.221Z,52.87
2019-05-19T16:24:06.781Z,52.93
2019-05-19T16:26:36.395Z,52.99
2019-05-19T16:29:07.079Z,53.05
2019-05-19T16:31:36.673Z,53.10
2019-05-19T16:34:06.223Z,53.17
2019-05-19T16:36:37.203Z,53.24
2019-05-19T16:39:08.860Z,53.32
2019-05-19T16:41:38.521Z,53.39
2019-05-19T16:44:08.086Z,53.50
2019-05-19T16:46:37.651Z,53.58
2019-05-19T16:49:08.546Z,53.67
2019-05-19T16:51:39.210Z,53.78
2019-05-19T16:54:10.442Z,53.87
2019-05-19T16:56:39.867Z,53.98
2019-05-19T16:59:10.324Z,54.07
2019-05-19T17:01:39.914Z,54.16
2019-05-19T17:04:09.557Z,54.22
2019-05-19T17:06:39.227Z,54.35
2019-05-19T17:09:08.858Z,54.43
2019-05-19T17:11:39.730Z,54.51
2019-05-19T17:14:09.403Z,54.61
2019-05-19T17:16:39.258Z,54.69
2019-05-19T17:19:09.043Z,54.81
2019-05-19T17:21:38.519Z,54.86
2019-05-19T17:24:07.999Z,54.94
2019-05-19T17:26:37.501Z,55.02
2019-05-19T17:29:07.152Z,55.11
2019-05-19T17:31:36.581Z,55.18
2019-05-19T17:34:06.141Z,55.29
2019-05-19T17:36:35.679Z,55.40
2019-05-19T17:39:06.714Z,55.45
2019-05-19T17:41:36.333Z,55.52
2019-05-19T17:44:05.929Z,55.64
2019-05-19T17:46:35.502Z,55.72
2019-05-19T17:49:05.059Z,55.83
2019-05-19T17:51:34.614Z,55.92
2019-05-19T17:54:04.192Z,56.00
2019-05-19T17:56:35.880Z,56.09
2019-05-19T17:59:16.162Z,56.18
2019-05-19T18:01:36.636Z,56.29
2019-05-19T18:04:06.175Z,56.37
2019-05-19T18:06:36.051Z,56.47
2019-05-19T18:09:06.377Z,56.56
2019-05-19T18:11:37.021Z,56.68
2019-05-19T18:14:06.512Z,56.77
2019-05-19T18:16:35.936Z,56.84
2019-05-19T18:19:05.503Z,56.95
2019-05-19T18:21:35.976Z,57.03
2019-05-19T18:24:06.034Z,57.10
2019-05-19T18:26:35.602Z,57.17
2019-05-19T18:29:05.262Z,57.22
2019-05-19T18:31:36.456Z,57.26
2019-05-19T18:34:05.978Z,57.29
2019-05-19T18:36:35.480Z,57.32
2019-05-19T18:39:06.511Z,57.39
2019-05-19T18:41:36.000Z,57.43
2019-05-19T18:44:05.745Z,57.47
2019-05-19T18:46:35.354Z,57.52
2019-05-19T18:49:04.969Z,57.56
2019-05-19T18:51:34.528Z,57.60
2019-05-19T18:54:04.130Z,57.66
2019-05-19T18:56:33.705Z,57.71
2019-05-19T18:59:03.268Z,57.76
2019-05-19T19:01:32.869Z,57.79
2019-05-19T19:04:02.450Z,57.83
2019-05-19T19:06:33.215Z,57.87
2019-05-19T19:09:04.952Z,57.89
2019-05-19T19:11:34.579Z,57.94
2019-05-19T19:14:04.190Z,57.98
2019-05-19T19:16:33.691Z,58.03
2019-05-19T19:19:03.187Z,58.06
2019-05-19T19:21:32.995Z,58.10
2019-05-19T19:24:02.488Z,58.14
2019-05-19T19:26:31.997Z,58.18
2019-05-19T19:29:01.597Z,58.24
2019-05-19T19:31:31.089Z,58.26
2019-05-19T19:34:00.654Z,58.35
2019-05-19T19:36:30.226Z,58.40
2019-05-19T19:38:59.647Z,58.45
2019-05-19T19:41:29.279Z,58.48
2019-05-19T19:43:58.772Z,58.54
2019-05-19T19:46:28.659Z,58.57
2019-05-19T19:48:58.142Z,58.62
2019-05-19T19:51:27.635Z,58.65
2019-05-19T19:53:57.284Z,58.69
2019-05-19T19:56:26.848Z,58.72
2019-05-19T19:58:56.699Z,58.73
2019-05-19T20:01:26.334Z,58.76
2019-05-19T20:03:57.142Z,58.77
2019-05-19T20:06:26.648Z,58.78
2019-05-19T20:08:56.205Z,58.80
2019-05-19T20:11:25.728Z,58.79
2019-05-19T20:13:55.289Z,58.77
2019-05-19T20:16:24.775Z,58.76
2019-05-19T20:18:54.365Z,58.71
2019-05-19T20:21:24.054Z,58.71
2019-05-19T20:23:53.481Z,58.68
2019-05-19T20:26:22.967Z,58.67
2019-05-19T20:28:52.574Z,58.58
2019-05-19T20:31:22.029Z,58.50
2019-05-19T20:33:51.460Z,58.38
2019-05-19T20:36:20.900Z,58.26
2019-05-19T20:38:50.310Z,58.13
2019-05-19T20:41:19.897Z,57.98
2019-05-19T20:43:49.685Z,57.88
2019-05-19T20:46:19.547Z,57.79
2019-05-19T20:48:49.282Z,57.70
2019-05-19T20:51:18.945Z,57.62
2019-05-19T20:53:48.593Z,57.55
2019-05-19T20:56:18.265Z,57.51
2019-05-19T20:58:48.264Z,57.52
2019-05-19T21:01:17.924Z,57.58
2019-05-19T21:03:47.864Z,57.49
2019-05-19T21:06:17.457Z,57.42
2019-05-19T21:08:47.206Z,57.40
2019-05-19T21:11:16.969Z,57.38
2019-05-19T21:13:46.628Z,57.36
2019-05-19T21:16:16.293Z,57.41
2019-05-19T21:19:04.170Z,57.43
2019-05-19T21:21:33.924Z,57.47
2019-05-19T21:24:03.949Z,57.50
2019-05-19T21:26:33.721Z,57.55
2019-05-19T21:29:03.422Z,57.60
2019-05-19T21:31:33.073Z,57.63
2019-05-19T21:34:02.850Z,57.69
2019-05-19T21:36:32.441Z,57.70
2019-05-19T21:39:02.099Z,57.67
2019-05-19T21:41:33.384Z,57.61
2019-05-19T21:44:03.066Z,57.58
2019-05-19T21:46:32.719Z,57.55
2019-05-19T21:49:02.442Z,57.49
2019-05-19T21:51:32.391Z,57.47
2019-05-19T21:54:02.112Z,57.44
2019-05-19T21:56:31.780Z,57.42
2019-05-19T21:59:01.476Z,57.45
2019-05-19T22:01:31.131Z,57.50
2019-05-19T22:04:00.798Z,57.49
2019-05-19T22:06:32.086Z,57.51
2019-05-19T22:09:01.753Z,57.50
2019-05-19T22:11:32.981Z,57.49
2019-05-19T22:14:02.716Z,57.50
2019-05-19T22:16:32.477Z,57.49
2019-05-19T22:19:02.156Z,57.44
2019-05-19T22:21:32.021Z,57.40
2019-05-19T22:24:01.682Z,57.33
2019-05-19T22:26:31.348Z,57.27
2019-05-19T22:29:01.001Z,57.25
2019-05-19T22:31:36.848Z,57.22
2019-05-19T22:34:02.103Z,57.20
2019-05-19T22:36:31.747Z,57.21
2019-05-19T22:39:01.410Z,57.17
2019-05-19T22:41:32.658Z,57.14
2019-05-19T22:44:02.498Z,57.09
2019-05-19T22:46:32.153Z,57.06
2019-05-19T22:49:01.978Z,57.03
2019-05-19T22:51:31.627Z,57.01
2019-05-19T22:54:01.536Z,57.02
2019-05-19T22:56:31.219Z,57.04
2019-05-19T22:59:00.977Z,57.07
2019-05-19T23:01:30.705Z,57.13
2019-05-19T23:04:00.397Z,57.26
2019-05-19T23:06:30.155Z,57.35
2019-05-19T23:08:59.983Z,57.41
2019-05-19T23:11:29.716Z,57.43
2019-05-19T23:13:59.440Z,57.51
2019-05-19T23:16:29.128Z,57.57
2019-05-19T23:18:59.098Z,57.64
2019-05-19T23:21:28.757Z,57.68
2019-05-19T23:23:58.422Z,57.73
2019-05-19T23:26:28.069Z,57.78
2019-05-19T23:28:57.736Z,57.84
2019-05-19T23:31:27.391Z,57.90
2019-05-19T23:33:57.056Z,57.97
2019-05-19T23:36:26.677Z,58.02
2019-05-19T23:38:56.352Z,58.07
2019-05-19T23:41:26.071Z,58.16
2019-05-19T23:43:55.813Z,58.24
2019-05-19T23:46:25.575Z,58.33
2019-05-19T23:48:55.230Z,58.40
2019-05-19T23:51:24.925Z,58.49
2019-05-19T23:53:54.582Z,58.58
2019-05-19T23:56:24.234Z,58.65
2019-05-19T23:58:54.008Z,58.70
